sensor_id;sensor_type;location;lat;lon;timestamp;temperature;humidity
32694;DHT22;19084;44.716;10.218;2022-10-15T00:00:40;15.20;99.90
32694;DHT22;19084;44.716;10.218;2022-10-15T00:03:13;15.20;99.90
32694;DHT22;19084;44.716;10.218;2022-10-15T00:05:46;15.20;99.90
32694;DHT22;19084;44.716;10.218;2022-10-15T00:08:18;15.20;99.90
32694;DHT22;19084;44.716;10.218;2022-10-15T00:10:51;15.20;99.90
32694;DHT22;19084;44.716;10.218;2022-10-15T00:13:23;15.30;99.90
32694;DHT22;19084;44.716;10.218;2022-10-15T00:15:56;15.30;99.90
32694;DHT22;19084;44.716;10.218;2022-10-15T00:18:29;15.30;99.90
32694;DHT22;19084;44.716;10.218;2022-10-15T00:21:05;15.40;99.90
32694;DHT22;19084;44.716;10.218;2022-10-15T00:23:38;15.40;99.90
32694;DHT22;19084;44.716;10.218;2022-10-15T00:26:15;15.50;99.90
32694;DHT22;19084;44.716;10.218;2022-10-15T00:28:50;15.50;99.90
32694;DHT22;19084;44.716;10.218;2022-10-15T00:31:28;15.50;99.90
32694;DHT22;19084;44.716;10.218;2022-10-15T00:34:01;15.60;99.90
32694;DHT22;19084;44.716;10.218;2022-10-15T00:36:35;15.50;99.90
32694;DHT22;19084;44.716;10.218;2022-10-15T00:39:09;15.50;99.90
32694;DHT22;19084;44.716;10.218;2022-10-15T00:41:43;15.50;99.90
32694;DHT22;19084;44.716;10.218;2022-10-15T00:47:06;15.50;99.90
32694;DHT22;19084;44.716;10.218;2022-10-15T00:55:32;15.50;99.90
32694;DHT22;19084;44.716;10.218;2022-10-15T00:58:10;15.60;99.90
32694;DHT22;19084;44.716;10.218;2022-10-15T01:00:49;15.60;99.90
32694;DHT22;19084;44.716;10.218;2022-10-15T01:03:22;15.70;99.90
32694;DHT22;19084;44.716;10.218;2022-10-15T01:05:55;15.60;99.90
32694;DHT22;19084;44.716;10.218;2022-10-15T01:08:28;15.60;99.90
32694;DHT22;19084;44.716;10.218;2022-10-15T01:14:01;15.40;99.90
32694;DHT22;19084;44.716;10.218;2022-10-15T01:27:52;15.10;99.90
32694;DHT22;19084;44.716;10.218;2022-10-15T01:30:35;15.10;99.90
32694;DHT22;19084;44.716;10.218;2022-10-15T01:38:58;15.00;99.90
32694;DHT22;19084;44.716;10.218;2022-10-15T01:41:53;15.00;99.90
32694;DHT22;19084;44.716;10.218;2022-10-15T01:44:33;14.90;99.90
32694;DHT22;19084;44.716;10.218;2022-10-15T01:47:23;14.90;99.90
32694;DHT22;19084;44.716;10.218;2022-10-15T01:50:02;14.90;99.90
32694;DHT22;19084;44.716;10.218;2022-10-15T01:52:38;14.90;99.90
32694;DHT22;19084;44.716;10.218;2022-10-15T01:55:13;14.90;99.90
32694;DHT22;19084;44.716;10.218;2022-10-15T01:57:47;14.80;99.90
32694;DHT22;19084;44.716;10.218;2022-10-15T02:00:20;14.80;99.90
32694;DHT22;19084;44.716;10.218;2022-10-15T02:03:00;14.80;99.90
32694;DHT22;19084;44.716;10.218;2022-10-15T02:05:38;14.80;99.90
32694;DHT22;19084;44.716;10.218;2022-10-15T02:11:09;14.70;99.90
32694;DHT22;19084;44.716;10.218;2022-10-15T02:14:00;14.60;99.90
32694;DHT22;19084;44.716;10.218;2022-10-15T02:16:53;14.60;99.90
32694;DHT22;19084;44.716;10.218;2022-10-15T02:19:48;14.60;99.90
32694;DHT22;19084;44.716;10.218;2022-10-15T02:22:24;14.60;99.90
32694;DHT22;19084;44.716;10.218;2022-10-15T02:25:02;14.60;99.90
32694;DHT22;19084;44.716;10.218;2022-10-15T02:27:37;14.60;99.90
32694;DHT22;19084;44.716;10.218;2022-10-15T02:30:11;14.60;99.90
32694;DHT22;19084;44.716;10.218;2022-10-15T02:32:47;14.70;99.90
32694;DHT22;19084;44.716;10.218;2022-10-15T02:35:26;14.70;99.90
32694;DHT22;19084;44.716;10.218;2022-10-15T02:38:02;14.80;99.90
32694;DHT22;19084;44.716;10.218;2022-10-15T02:40:38;14.90;99.90
32694;DHT22;19084;44.716;10.218;2022-10-15T02:43:15;14.90;99.90
32694;DHT22;19084;44.716;10.218;2022-10-15T02:45:51;15.00;99.90
32694;DHT22;19084;44.716;10.218;2022-10-15T02:48:25;15.00;99.90
32694;DHT22;19084;44.716;10.218;2022-10-15T02:50:58;15.10;99.90
32694;DHT22;19084;44.716;10.218;2022-10-15T02:53:30;15.10;99.90
32694;DHT22;19084;44.716;10.218;2022-10-15T02:56:04;15.10;99.90
32694;DHT22;19084;44.716;10.218;2022-10-15T02:58:38;13.00;99.90
32694;DHT22;19084;44.716;10.218;2022-10-15T03:01:12;15.10;99.90
32694;DHT22;19084;44.716;10.218;2022-10-15T03:03:45;15.10;99.90
32694;DHT22;19084;44.716;10.218;2022-10-15T03:06:18;15.20;99.90
32694;DHT22;19084;44.716;10.218;2022-10-15T03:08:52;15.10;99.90
32694;DHT22;19084;44.716;10.218;2022-10-15T03:11:26;15.10;99.90
32694;DHT22;19084;44.716;10.218;2022-10-15T03:13:59;15.10;99.90
32694;DHT22;19084;44.716;10.218;2022-10-15T03:16:34;15.10;99.90
32694;DHT22;19084;44.716;10.218;2022-10-15T03:19:06;15.10;99.90
32694;DHT22;19084;44.716;10.218;2022-10-15T03:21:40;15.10;99.90
32694;DHT22;19084;44.716;10.218;2022-10-15T03:24:16;15.10;99.90
32694;DHT22;19084;44.716;10.218;2022-10-15T03:26:49;15.10;99.90
32694;DHT22;19084;44.716;10.218;2022-10-15T03:29:21;15.10;99.90
32694;DHT22;19084;44.716;10.218;2022-10-15T03:32:02;15.10;99.90
32694;DHT22;19084;44.716;10.218;2022-10-15T03:34:35;15.10;99.90
32694;DHT22;19084;44.716;10.218;2022-10-15T03:37:08;15.10;99.90
32694;DHT22;19084;44.716;10.218;2022-10-15T03:39:41;15.10;99.90
32694;DHT22;19084;44.716;10.218;2022-10-15T03:42:14;15.00;99.90
32694;DHT22;19084;44.716;10.218;2022-10-15T03:44:50;15.00;99.90
32694;DHT22;19084;44.716;10.218;2022-10-15T03:47:24;15.00;99.90
32694;DHT22;19084;44.716;10.218;2022-10-15T03:49:57;14.90;99.90
32694;DHT22;19084;44.716;10.218;2022-10-15T03:52:29;14.90;99.90
32694;DHT22;19084;44.716;10.218;2022-10-15T03:55:04;14.80;99.90
32694;DHT22;19084;44.716;10.218;2022-10-15T03:57:38;14.80;99.90
32694;DHT22;19084;44.716;10.218;2022-10-15T04:00:12;14.70;99.90
32694;DHT22;19084;44.716;10.218;2022-10-15T04:02:45;14.70;99.90
32694;DHT22;19084;44.716;10.218;2022-10-15T04:05:29;14.70;99.90
32694;DHT22;19084;44.716;10.218;2022-10-15T04:08:08;14.60;99.90
32694;DHT22;19084;44.716;10.218;2022-10-15T04:10:45;14.60;99.90
32694;DHT22;19084;44.716;10.218;2022-10-15T04:13:18;14.60;99.90
32694;DHT22;19084;44.716;10.218;2022-10-15T04:15:50;14.50;99.90
32694;DHT22;19084;44.716;10.218;2022-10-15T04:18:23;14.50;99.90
32694;DHT22;19084;44.716;10.218;2022-10-15T04:21:00;14.50;99.90
32694;DHT22;19084;44.716;10.218;2022-10-15T04:23:33;14.50;99.90
32694;DHT22;19084;44.716;10.218;2022-10-15T04:26:21;14.50;99.90
32694;DHT22;19084;44.716;10.218;2022-10-15T04:28:54;14.60;99.90
32694;DHT22;19084;44.716;10.218;2022-10-15T04:31:27;14.60;99.90
32694;DHT22;19084;44.716;10.218;2022-10-15T04:34:02;14.70;99.90
32694;DHT22;19084;44.716;10.218;2022-10-15T04:36:35;14.70;99.90
32694;DHT22;19084;44.716;10.218;2022-10-15T04:39:19;14.80;99.90
32694;DHT22;19084;44.716;10.218;2022-10-15T04:41:52;14.80;99.90
32694;DHT22;19084;44.716;10.218;2022-10-15T04:44:28;14.80;99.90
32694;DHT22;19084;44.716;10.218;2022-10-15T04:47:03;14.80;99.90
32694;DHT22;19084;44.716;10.218;2022-10-15T04:49:41;14.80;99.90
32694;DHT22;19084;44.716;10.218;2022-10-15T04:52:22;14.90;99.90
32694;DHT22;19084;44.716;10.218;2022-10-15T04:55:00;14.90;99.90
32694;DHT22;19084;44.716;10.218;2022-10-15T04:57:34;14.90;99.90
32694;DHT22;19084;44.716;10.218;2022-10-15T05:00:08;14.90;99.90
32694;DHT22;19084;44.716;10.218;2022-10-15T05:03:00;14.90;99.90
32694;DHT22;19084;44.716;10.218;2022-10-15T05:05:45;14.90;99.90
32694;DHT22;19084;44.716;10.218;2022-10-15T05:08:18;14.90;99.90
32694;DHT22;19084;44.716;10.218;2022-10-15T05:11:11;14.90;99.90
32694;DHT22;19084;44.716;10.218;2022-10-15T05:13:44;14.90;99.90
32694;DHT22;19084;44.716;10.218;2022-10-15T05:16:21;14.80;99.90
32694;DHT22;19084;44.716;10.218;2022-10-15T05:18:57;14.80;99.90
32694;DHT22;19084;44.716;10.218;2022-10-15T05:21:31;14.80;99.90
32694;DHT22;19084;44.716;10.218;2022-10-15T05:24:09;14.80;99.90
32694;DHT22;19084;44.716;10.218;2022-10-15T05:26:56;14.80;99.90
32694;DHT22;19084;44.716;10.218;2022-10-15T05:29:31;14.80;99.90
32694;DHT22;19084;44.716;10.218;2022-10-15T05:32:05;14.80;99.90
32694;DHT22;19084;44.716;10.218;2022-10-15T05:34:38;14.80;99.90
32694;DHT22;19084;44.716;10.218;2022-10-15T05:37:16;14.80;99.90
32694;DHT22;19084;44.716;10.218;2022-10-15T05:39:49;14.70;99.90
32694;DHT22;19084;44.716;10.218;2022-10-15T05:42:21;14.70;99.90
32694;DHT22;19084;44.716;10.218;2022-10-15T05:45:00;14.70;99.90
32694;DHT22;19084;44.716;10.218;2022-10-15T05:47:33;14.70;99.90
32694;DHT22;19084;44.716;10.218;2022-10-15T05:50:22;14.70;99.90
32694;DHT22;19084;44.716;10.218;2022-10-15T05:52:59;14.70;99.90
32694;DHT22;19084;44.716;10.218;2022-10-15T05:55:39;14.70;99.90
32694;DHT22;19084;44.716;10.218;2022-10-15T05:58:11;14.70;99.90
32694;DHT22;19084;44.716;10.218;2022-10-15T06:00:44;14.70;99.90
32694;DHT22;19084;44.716;10.218;2022-10-15T06:03:17;14.70;99.90
32694;DHT22;19084;44.716;10.218;2022-10-15T06:05:49;14.80;99.90
32694;DHT22;19084;44.716;10.218;2022-10-15T06:08:22;14.80;99.90
32694;DHT22;19084;44.716;10.218;2022-10-15T06:11:00;14.80;99.90
32694;DHT22;19084;44.716;10.218;2022-10-15T06:13:40;14.80;99.90
32694;DHT22;19084;44.716;10.218;2022-10-15T06:16:15;14.90;99.90
32694;DHT22;19084;44.716;10.218;2022-10-15T06:18:55;14.90;99.90
32694;DHT22;19084;44.716;10.218;2022-10-15T06:21:27;14.90;99.90
32694;DHT22;19084;44.716;10.218;2022-10-15T06:24:00;14.90;99.90
32694;DHT22;19084;44.716;10.218;2022-10-15T06:26:37;14.90;99.90
32694;DHT22;19084;44.716;10.218;2022-10-15T06:29:10;15.00;99.90
32694;DHT22;19084;44.716;10.218;2022-10-15T06:31:43;15.10;99.90
32694;DHT22;19084;44.716;10.218;2022-10-15T06:34:16;15.00;99.90
32694;DHT22;19084;44.716;10.218;2022-10-15T06:36:48;15.10;99.90
32694;DHT22;19084;44.716;10.218;2022-10-15T06:39:21;15.10;99.90
32694;DHT22;19084;44.716;10.218;2022-10-15T06:41:53;15.20;99.90
32694;DHT22;19084;44.716;10.218;2022-10-15T06:44:27;15.20;99.90
32694;DHT22;19084;44.716;10.218;2022-10-15T06:47:00;15.30;99.90
32694;DHT22;19084;44.716;10.218;2022-10-15T06:49:33;15.30;99.90
32694;DHT22;19084;44.716;10.218;2022-10-15T06:52:06;15.40;99.90
32694;DHT22;19084;44.716;10.218;2022-10-15T06:54:38;15.40;99.90
32694;DHT22;19084;44.716;10.218;2022-10-15T06:57:12;15.50;99.90
32694;DHT22;19084;44.716;10.218;2022-10-15T06:59:45;15.60;99.90
32694;DHT22;19084;44.716;10.218;2022-10-15T07:02:17;15.70;99.90
32694;DHT22;19084;44.716;10.218;2022-10-15T07:04:50;15.80;99.90
32694;DHT22;19084;44.716;10.218;2022-10-15T07:07:24;15.90;99.90
32694;DHT22;19084;44.716;10.218;2022-10-15T07:09:57;16.00;99.90
32694;DHT22;19084;44.716;10.218;2022-10-15T07:12:29;16.10;99.90
32694;DHT22;19084;44.716;10.218;2022-10-15T07:15:03;16.10;99.90
32694;DHT22;19084;44.716;10.218;2022-10-15T07:17:38;16.10;99.90
32694;DHT22;19084;44.716;10.218;2022-10-15T07:20:11;16.10;99.90
32694;DHT22;19084;44.716;10.218;2022-10-15T07:22:43;16.20;99.90
32694;DHT22;19084;44.716;10.218;2022-10-15T07:25:16;16.20;99.90
32694;DHT22;19084;44.716;10.218;2022-10-15T07:27:49;16.20;99.90
32694;DHT22;19084;44.716;10.218;2022-10-15T07:30:23;16.20;99.90
32694;DHT22;19084;44.716;10.218;2022-10-15T07:32:59;16.30;99.90
32694;DHT22;19084;44.716;10.218;2022-10-15T07:35:32;16.40;99.90
32694;DHT22;19084;44.716;10.218;2022-10-15T07:38:05;16.40;99.90
32694;DHT22;19084;44.716;10.218;2022-10-15T07:40:38;16.50;99.90
32694;DHT22;19084;44.716;10.218;2022-10-15T07:43:10;16.60;99.90
32694;DHT22;19084;44.716;10.218;2022-10-15T07:45:47;16.70;99.90
32694;DHT22;19084;44.716;10.218;2022-10-15T07:48:21;16.80;99.90
32694;DHT22;19084;44.716;10.218;2022-10-15T07:50:59;16.90;99.90
32694;DHT22;19084;44.716;10.218;2022-10-15T07:53:33;16.90;99.90
32694;DHT22;19084;44.716;10.218;2022-10-15T07:56:08;17.10;99.90
32694;DHT22;19084;44.716;10.218;2022-10-15T07:58:41;17.10;99.90
32694;DHT22;19084;44.716;10.218;2022-10-15T08:01:14;17.10;99.90
32694;DHT22;19084;44.716;10.218;2022-10-15T08:03:47;17.20;99.90
32694;DHT22;19084;44.716;10.218;2022-10-15T08:06:20;17.30;99.90
32694;DHT22;19084;44.716;10.218;2022-10-15T08:08:52;17.30;99.90
32694;DHT22;19084;44.716;10.218;2022-10-15T08:11:25;17.40;99.90
32694;DHT22;19084;44.716;10.218;2022-10-15T08:13:58;17.50;99.90
32694;DHT22;19084;44.716;10.218;2022-10-15T08:16:30;17.50;99.90
32694;DHT22;19084;44.716;10.218;2022-10-15T08:19:04;17.50;99.90
32694;DHT22;19084;44.716;10.218;2022-10-15T08:21:37;17.50;99.90
32694;DHT22;19084;44.716;10.218;2022-10-15T08:24:09;17.50;99.90
32694;DHT22;19084;44.716;10.218;2022-10-15T08:26:42;17.60;99.90
32694;DHT22;19084;44.716;10.218;2022-10-15T08:29:15;17.60;99.90
32694;DHT22;19084;44.716;10.218;2022-10-15T08:31:48;17.70;99.90
32694;DHT22;19084;44.716;10.218;2022-10-15T08:34:25;17.70;99.90
32694;DHT22;19084;44.716;10.218;2022-10-15T08:36:58;17.80;99.90
32694;DHT22;19084;44.716;10.218;2022-10-15T08:39:30;17.80;99.90
32694;DHT22;19084;44.716;10.218;2022-10-15T08:42:05;17.90;99.90
32694;DHT22;19084;44.716;10.218;2022-10-15T08:44:49;17.90;99.90
32694;DHT22;19084;44.716;10.218;2022-10-15T08:52:51;17.90;99.90
32694;DHT22;19084;44.716;10.218;2022-10-15T08:55:32;18.00;99.90
32694;DHT22;19084;44.716;10.218;2022-10-15T08:58:24;18.00;99.90
32694;DHT22;19084;44.716;10.218;2022-10-15T09:06:30;18.20;99.90
32694;DHT22;19084;44.716;10.218;2022-10-15T09:09:19;18.30;99.90
32694;DHT22;19084;44.716;10.218;2022-10-15T09:15:01;18.40;99.90
32694;DHT22;19084;44.716;10.218;2022-10-15T09:17:34;18.50;99.90
32694;DHT22;19084;44.716;10.218;2022-10-15T09:20:15;18.50;99.90
32694;DHT22;19084;44.716;10.218;2022-10-15T09:22:58;18.60;99.90
32694;DHT22;19084;44.716;10.218;2022-10-15T09:25:34;18.70;99.90
32694;DHT22;19084;44.716;10.218;2022-10-15T09:28:15;18.70;99.90
32694;DHT22;19084;44.716;10.218;2022-10-15T09:30:52;18.70;99.90
32694;DHT22;19084;44.716;10.218;2022-10-15T09:33:36;18.70;99.90
32694;DHT22;19084;44.716;10.218;2022-10-15T09:44:35;18.80;99.90
32694;DHT22;19084;44.716;10.218;2022-10-15T09:47:16;18.80;99.90
32694;DHT22;19084;44.716;10.218;2022-10-15T09:49:52;18.90;99.90
32694;DHT22;19084;44.716;10.218;2022-10-15T09:55:41;19.00;99.90
32694;DHT22;19084;44.716;10.218;2022-10-15T09:58:18;19.00;99.90
32694;DHT22;19084;44.716;10.218;2022-10-15T10:00:55;19.10;99.90
32694;DHT22;19084;44.716;10.218;2022-10-15T10:03:31;19.10;99.90
32694;DHT22;19084;44.716;10.218;2022-10-15T10:06:09;19.20;99.90
32694;DHT22;19084;44.716;10.218;2022-10-15T10:08:55;19.20;99.90
32694;DHT22;19084;44.716;10.218;2022-10-15T10:11:46;19.30;99.90
32694;DHT22;19084;44.716;10.218;2022-10-15T10:14:28;19.40;99.90
32694;DHT22;19084;44.716;10.218;2022-10-15T10:17:11;19.40;99.90
32694;DHT22;19084;44.716;10.218;2022-10-15T10:22:50;19.50;99.90
32694;DHT22;19084;44.716;10.218;2022-10-15T10:30:52;19.70;99.90
32694;DHT22;19084;44.716;10.218;2022-10-15T10:36:21;19.70;99.90
32694;DHT22;19084;44.716;10.218;2022-10-15T10:44:37;20.20;99.90
32694;DHT22;19084;44.716;10.218;2022-10-15T10:47:14;20.20;99.90
32694;DHT22;19084;44.716;10.218;2022-10-15T10:49:51;20.30;99.90
32694;DHT22;19084;44.716;10.218;2022-10-15T10:52:28;20.30;99.90
32694;DHT22;19084;44.716;10.218;2022-10-15T10:57:58;20.30;99.90
32694;DHT22;19084;44.716;10.218;2022-10-15T11:00:42;20.30;99.90
32694;DHT22;19084;44.716;10.218;2022-10-15T11:03:21;20.30;99.90
32694;DHT22;19084;44.716;10.218;2022-10-15T11:08:46;20.40;99.90
32694;DHT22;19084;44.716;10.218;2022-10-15T11:11:32;20.30;99.90
32694;DHT22;19084;44.716;10.218;2022-10-15T11:19:54;20.70;99.90
32694;DHT22;19084;44.716;10.218;2022-10-15T11:23:13;20.80;99.90
32694;DHT22;19084;44.716;10.218;2022-10-15T11:29:00;21.10;99.90
32694;DHT22;19084;44.716;10.218;2022-10-15T11:37:53;21.10;99.90
32694;DHT22;19084;44.716;10.218;2022-10-15T11:40:31;21.20;99.90
32694;DHT22;19084;44.716;10.218;2022-10-15T11:43:39;21.30;99.90
32694;DHT22;19084;44.716;10.218;2022-10-15T11:46:36;21.30;99.90
32694;DHT22;19084;44.716;10.218;2022-10-15T11:55:18;21.40;99.90
32694;DHT22;19084;44.716;10.218;2022-10-15T11:57:57;21.40;99.90
32694;DHT22;19084;44.716;10.218;2022-10-15T12:00:38;21.50;99.90
32694;DHT22;19084;44.716;10.218;2022-10-15T12:03:18;21.60;99.90
32694;DHT22;19084;44.716;10.218;2022-10-15T12:05:58;21.70;99.90
32694;DHT22;19084;44.716;10.218;2022-10-15T12:08:37;21.70;99.90
32694;DHT22;19084;44.716;10.218;2022-10-15T12:19:17;21.80;99.90
32694;DHT22;19084;44.716;10.218;2022-10-15T12:30:11;22.00;99.90
32694;DHT22;19084;44.716;10.218;2022-10-15T12:32:46;22.00;99.90
32694;DHT22;19084;44.716;10.218;2022-10-15T12:35:24;22.10;99.90
32694;DHT22;19084;44.716;10.218;2022-10-15T12:38:18;22.10;99.90
32694;DHT22;19084;44.716;10.218;2022-10-15T12:41:09;22.10;99.90
32694;DHT22;19084;44.716;10.218;2022-10-15T12:43:47;22.10;99.90
32694;DHT22;19084;44.716;10.218;2022-10-15T12:46:36;22.10;99.90
32694;DHT22;19084;44.716;10.218;2022-10-15T13:00:39;22.00;99.90
32694;DHT22;19084;44.716;10.218;2022-10-15T13:05:48;22.00;99.90
32694;DHT22;19084;44.716;10.218;2022-10-15T13:08:44;22.00;99.90
32694;DHT22;19084;44.716;10.218;2022-10-15T13:17:14;22.00;99.90
32694;DHT22;19084;44.716;10.218;2022-10-15T13:20:04;22.00;99.90
32694;DHT22;19084;44.716;10.218;2022-10-15T13:22:39;22.00;99.90
32694;DHT22;19084;44.716;10.218;2022-10-15T13:25:16;22.10;99.90
32694;DHT22;19084;44.716;10.218;2022-10-15T13:27:49;22.00;99.90
32694;DHT22;19084;44.716;10.218;2022-10-15T13:30:21;22.00;99.90
32694;DHT22;19084;44.716;10.218;2022-10-15T13:32:55;22.10;99.90
32694;DHT22;19084;44.716;10.218;2022-10-15T13:35:30;22.10;99.90
32694;DHT22;19084;44.716;10.218;2022-10-15T13:38:06;22.00;99.90
32694;DHT22;19084;44.716;10.218;2022-10-15T13:40:49;22.10;99.90
32694;DHT22;19084;44.716;10.218;2022-10-15T13:43:25;22.10;99.90
32694;DHT22;19084;44.716;10.218;2022-10-15T13:46:00;22.10;99.90
32694;DHT22;19084;44.716;10.218;2022-10-15T13:48:40;22.10;99.90
32694;DHT22;19084;44.716;10.218;2022-10-15T13:51:18;22.10;99.90
32694;DHT22;19084;44.716;10.218;2022-10-15T13:53:51;22.00;99.90
32694;DHT22;19084;44.716;10.218;2022-10-15T13:56:30;22.00;99.90
32694;DHT22;19084;44.716;10.218;2022-10-15T13:59:03;22.00;99.90
32694;DHT22;19084;44.716;10.218;2022-10-15T14:01:45;22.00;99.90
32694;DHT22;19084;44.716;10.218;2022-10-15T14:04:22;22.00;99.90
32694;DHT22;19084;44.716;10.218;2022-10-15T14:09:36;21.90;99.90
32694;DHT22;19084;44.716;10.218;2022-10-15T14:12:10;21.90;99.90
32694;DHT22;19084;44.716;10.218;2022-10-15T14:14:44;21.90;99.90
32694;DHT22;19084;44.716;10.218;2022-10-15T14:19:54;21.90;99.90
32694;DHT22;19084;44.716;10.218;2022-10-15T14:22:48;21.90;99.90
32694;DHT22;19084;44.716;10.218;2022-10-15T14:25:24;21.90;99.90
32694;DHT22;19084;44.716;10.218;2022-10-15T14:27:57;21.90;99.90
32694;DHT22;19084;44.716;10.218;2022-10-15T14:30:33;21.80;99.90
32694;DHT22;19084;44.716;10.218;2022-10-15T14:36:22;21.80;99.90
32694;DHT22;19084;44.716;10.218;2022-10-15T14:39:20;21.80;99.90
32694;DHT22;19084;44.716;10.218;2022-10-15T14:42:02;21.70;99.90
32694;DHT22;19084;44.716;10.218;2022-10-15T14:44:44;21.70;99.90
32694;DHT22;19084;44.716;10.218;2022-10-15T14:47:21;21.70;99.90
32694;DHT22;19084;44.716;10.218;2022-10-15T14:49:57;21.70;99.90
32694;DHT22;19084;44.716;10.218;2022-10-15T14:52:34;21.70;99.90
32694;DHT22;19084;44.716;10.218;2022-10-15T14:55:26;21.70;99.90
32694;DHT22;19084;44.716;10.218;2022-10-15T14:58:10;21.60;99.90
32694;DHT22;19084;44.716;10.218;2022-10-15T15:00:48;21.60;99.90
32694;DHT22;19084;44.716;10.218;2022-10-15T15:03:37;21.60;99.90
32694;DHT22;19084;44.716;10.218;2022-10-15T15:06:10;21.50;99.90
32694;DHT22;19084;44.716;10.218;2022-10-15T15:08:43;21.50;99.90
32694;DHT22;19084;44.716;10.218;2022-10-15T15:11:20;21.50;99.90
32694;DHT22;19084;44.716;10.218;2022-10-15T15:13:54;21.50;99.90
32694;DHT22;19084;44.716;10.218;2022-10-15T15:16:26;21.40;99.90
32694;DHT22;19084;44.716;10.218;2022-10-15T15:18:59;21.40;99.90
32694;DHT22;19084;44.716;10.218;2022-10-15T15:21:31;21.30;99.90
32694;DHT22;19084;44.716;10.218;2022-10-15T15:24:05;21.30;99.90
32694;DHT22;19084;44.716;10.218;2022-10-15T15:26:37;21.20;99.90
32694;DHT22;19084;44.716;10.218;2022-10-15T15:29:12;21.20;99.90
32694;DHT22;19084;44.716;10.218;2022-10-15T15:31:47;21.20;99.90
32694;DHT22;19084;44.716;10.218;2022-10-15T15:34:20;21.10;99.90
32694;DHT22;19084;44.716;10.218;2022-10-15T15:36:55;21.10;99.90
32694;DHT22;19084;44.716;10.218;2022-10-15T15:39:27;21.00;99.90
32694;DHT22;19084;44.716;10.218;2022-10-15T15:42:00;21.00;99.90
32694;DHT22;19084;44.716;10.218;2022-10-15T15:44:33;21.00;99.90
32694;DHT22;19084;44.716;10.218;2022-10-15T15:47:06;20.90;99.90
32694;DHT22;19084;44.716;10.218;2022-10-15T15:49:39;20.90;99.90
32694;DHT22;19084;44.716;10.218;2022-10-15T15:52:12;20.80;99.90
32694;DHT22;19084;44.716;10.218;2022-10-15T15:54:45;20.80;99.90
32694;DHT22;19084;44.716;10.218;2022-10-15T15:57:18;20.70;99.90
32694;DHT22;19084;44.716;10.218;2022-10-15T15:59:51;20.70;99.90
32694;DHT22;19084;44.716;10.218;2022-10-15T16:02:24;20.60;99.90
32694;DHT22;19084;44.716;10.218;2022-10-15T16:04:57;20.60;99.90
32694;DHT22;19084;44.716;10.218;2022-10-15T16:07:30;20.50;99.90
32694;DHT22;19084;44.716;10.218;2022-10-15T16:10:03;20.40;99.90
32694;DHT22;19084;44.716;10.218;2022-10-15T16:12:38;20.30;99.90
32694;DHT22;19084;44.716;10.218;2022-10-15T16:15:11;20.20;99.90
32694;DHT22;19084;44.716;10.218;2022-10-15T16:17:46;20.20;99.90
32694;DHT22;19084;44.716;10.218;2022-10-15T16:20:20;20.10;99.90
32694;DHT22;19084;44.716;10.218;2022-10-15T16:22:53;20.10;99.90
32694;DHT22;19084;44.716;10.218;2022-10-15T16:25:26;20.00;99.90
32694;DHT22;19084;44.716;10.218;2022-10-15T16:28:01;19.90;99.90
32694;DHT22;19084;44.716;10.218;2022-10-15T16:30:34;19.90;99.90
32694;DHT22;19084;44.716;10.218;2022-10-15T16:33:06;19.80;99.90
32694;DHT22;19084;44.716;10.218;2022-10-15T16:35:50;19.70;99.90
32694;DHT22;19084;44.716;10.218;2022-10-15T16:38:24;19.70;99.90
32694;DHT22;19084;44.716;10.218;2022-10-15T16:40:57;19.70;99.90
32694;DHT22;19084;44.716;10.218;2022-10-15T16:43:29;19.60;99.90
32694;DHT22;19084;44.716;10.218;2022-10-15T16:46:04;19.60;99.90
32694;DHT22;19084;44.716;10.218;2022-10-15T16:48:38;19.50;99.90
32694;DHT22;19084;44.716;10.218;2022-10-15T16:51:13;19.50;99.90
32694;DHT22;19084;44.716;10.218;2022-10-15T16:53:47;19.50;99.90
32694;DHT22;19084;44.716;10.218;2022-10-15T16:56:23;19.50;99.90
32694;DHT22;19084;44.716;10.218;2022-10-15T16:58:56;19.40;99.90
32694;DHT22;19084;44.716;10.218;2022-10-15T17:01:30;19.40;99.90
32694;DHT22;19084;44.716;10.218;2022-10-15T17:04:03;19.40;99.90
32694;DHT22;19084;44.716;10.218;2022-10-15T17:06:36;19.30;99.90
32694;DHT22;19084;44.716;10.218;2022-10-15T17:09:10;19.30;99.90
32694;DHT22;19084;44.716;10.218;2022-10-15T17:11:43;19.30;99.90
32694;DHT22;19084;44.716;10.218;2022-10-15T17:14:21;19.30;99.90
32694;DHT22;19084;44.716;10.218;2022-10-15T17:16:54;19.30;99.90
32694;DHT22;19084;44.716;10.218;2022-10-15T17:19:27;19.30;99.90
32694;DHT22;19084;44.716;10.218;2022-10-15T17:22:05;19.20;99.90
32694;DHT22;19084;44.716;10.218;2022-10-15T17:24:38;19.20;99.90
32694;DHT22;19084;44.716;10.218;2022-10-15T17:27:10;19.20;99.90
32694;DHT22;19084;44.716;10.218;2022-10-15T17:29:43;19.20;99.90
32694;DHT22;19084;44.716;10.218;2022-10-15T17:32:17;19.20;99.90
32694;DHT22;19084;44.716;10.218;2022-10-15T17:34:49;19.10;99.90
32694;DHT22;19084;44.716;10.218;2022-10-15T17:37:22;19.20;99.90
32694;DHT22;19084;44.716;10.218;2022-10-15T17:39:55;19.10;99.90
32694;DHT22;19084;44.716;10.218;2022-10-15T17:42:29;19.10;99.90
32694;DHT22;19084;44.716;10.218;2022-10-15T17:45:02;19.10;99.90
32694;DHT22;19084;44.716;10.218;2022-10-15T17:47:36;19.10;99.90
32694;DHT22;19084;44.716;10.218;2022-10-15T17:50:10;19.10;99.90
32694;DHT22;19084;44.716;10.218;2022-10-15T17:52:46;19.10;99.90
32694;DHT22;19084;44.716;10.218;2022-10-15T17:55:18;19.00;99.90
32694;DHT22;19084;44.716;10.218;2022-10-15T17:57:51;19.00;99.90
32694;DHT22;19084;44.716;10.218;2022-10-15T18:00:25;19.00;99.90
32694;DHT22;19084;44.716;10.218;2022-10-15T18:02:58;19.00;99.90
32694;DHT22;19084;44.716;10.218;2022-10-15T18:05:30;18.90;99.90
32694;DHT22;19084;44.716;10.218;2022-10-15T18:08:03;18.90;99.90
32694;DHT22;19084;44.716;10.218;2022-10-15T18:10:36;18.90;99.90
32694;DHT22;19084;44.716;10.218;2022-10-15T18:13:10;18.90;99.90
32694;DHT22;19084;44.716;10.218;2022-10-15T18:15:49;18.90;99.90
32694;DHT22;19084;44.716;10.218;2022-10-15T18:18:22;18.90;99.90
32694;DHT22;19084;44.716;10.218;2022-10-15T18:20:55;18.90;99.90
32694;DHT22;19084;44.716;10.218;2022-10-15T18:23:29;18.90;99.90
32694;DHT22;19084;44.716;10.218;2022-10-15T18:26:04;18.90;99.90
32694;DHT22;19084;44.716;10.218;2022-10-15T18:28:41;18.90;99.90
32694;DHT22;19084;44.716;10.218;2022-10-15T18:31:14;18.90;99.90
32694;DHT22;19084;44.716;10.218;2022-10-15T18:33:50;18.90;99.90
32694;DHT22;19084;44.716;10.218;2022-10-15T18:36:26;18.90;99.90